createdAt,value
2016-12-11T00:00:57.535Z,55.1
2016-12-11T00:03:29.378Z,55.2
2016-12-11T00:06:01.224Z,55.1
2016-12-11T00:08:33.077Z,55
2016-12-11T00:11:04.925Z,55.1
2016-12-11T00:13:36.767Z,55.1
2016-12-11T00:16:08.632Z,55.1
2016-12-11T00:18:40.497Z,55
2016-12-11T00:21:12.345Z,55
2016-12-11T00:23:44.182Z,55
2016-12-11T00:26:16.032Z,55
2016-12-11T00:28:47.886Z,55
2016-12-11T00:31:19.723Z,55
2016-12-11T00:33:51.572Z,55
2016-12-11T00:36:23.399Z,55
2016-12-11T00:38:55.258Z,55
2016-12-11T00:41:27.115Z,55
2016-12-11T00:43:58.945Z,55
2016-12-11T00:46:30.806Z,55.1
2016-12-11T00:49:02.639Z,55
2016-12-11T00:51:34.469Z,54.9
2016-12-11T00:54:06.322Z,54.9
2016-12-11T00:56:38.148Z,54.9
2016-12-11T00:59:10.002Z,55
2016-12-11T01:01:41.852Z,55
2016-12-11T01:04:13.681Z,55
2016-12-11T01:06:45.528Z,54.9
2016-12-11T01:09:17.374Z,54.9
2016-12-11T01:11:49.226Z,55
2016-12-11T01:14:21.074Z,55
2016-12-11T01:16:52.949Z,54.9
2016-12-11T01:19:24.784Z,54.8
2016-12-11T01:21:56.626Z,55
2016-12-11T01:24:28.471Z,54.9
2016-12-11T01:27:00.319Z,54.9
2016-12-11T01:29:32.173Z,54.8
2016-12-11T01:32:04.020Z,54.8
2016-12-11T01:34:35.864Z,54.8
2016-12-11T01:37:07.740Z,54.8
2016-12-11T01:39:39.564Z,54.9
2016-12-11T01:42:11.405Z,54.9
2016-12-11T01:44:43.253Z,55
2016-12-11T01:47:15.125Z,54.8
2016-12-11T01:49:46.972Z,54.8
2016-12-11T01:52:18.818Z,54.8
2016-12-11T01:54:50.667Z,54.8
2016-12-11T01:57:22.513Z,54.8
2016-12-11T01:59:54.389Z,54.9
2016-12-11T02:02:26.230Z,54.9
2016-12-11T02:04:58.079Z,54.8
2016-12-11T02:07:29.909Z,54.8
2016-12-11T02:10:01.764Z,54.8
2016-12-11T02:12:33.637Z,54.8
2016-12-11T02:15:05.476Z,54.8
2016-12-11T02:17:37.325Z,54.7
2016-12-11T02:20:09.175Z,54.7
2016-12-11T02:22:41.040Z,54.8
2016-12-11T02:25:12.891Z,54.8
2016-12-11T02:27:44.732Z,54.7
2016-12-11T02:30:16.578Z,54.7
2016-12-11T02:32:48.418Z,54.7
2016-12-11T02:35:20.260Z,54.7
2016-12-11T02:37:52.098Z,54.7
2016-12-11T02:40:23.925Z,54.7
2016-12-11T02:42:55.761Z,54.7
2016-12-11T02:45:27.597Z,54.7
2016-12-11T02:47:59.443Z,54.7
2016-12-11T02:50:31.298Z,54.6
2016-12-11T02:53:03.149Z,54.8
2016-12-11T02:55:34.998Z,54.7
2016-12-11T02:58:06.835Z,54.7
2016-12-11T03:00:38.679Z,54.7
2016-12-11T03:03:10.533Z,54.6
2016-12-11T03:05:42.374Z,54.6
2016-12-11T03:08:14.200Z,54.7
2016-12-11T03:10:46.029Z,54.7
2016-12-11T03:13:17.888Z,54.6
2016-12-11T03:15:49.720Z,54.6
2016-12-11T03:18:21.558Z,54.6
2016-12-11T03:20:53.415Z,54.6
2016-12-11T03:23:25.255Z,54.6
2016-12-11T03:25:57.116Z,54.6
2016-12-11T03:28:28.940Z,54.6
2016-12-11T03:31:00.788Z,54.6
2016-12-11T03:33:32.649Z,54.6
2016-12-11T03:36:04.480Z,54.6
2016-12-11T03:38:36.339Z,54.6
2016-12-11T03:41:08.178Z,54.6
2016-12-11T03:43:39.998Z,54.6
2016-12-11T03:46:11.854Z,54.6
2016-12-11T03:48:43.765Z,54.5
2016-12-11T03:51:15.614Z,54.6
2016-12-11T03:53:47.457Z,54.6
2016-12-11T03:56:19.292Z,54.5
2016-12-11T03:58:51.135Z,54.6
2016-12-11T04:01:22.978Z,54.5
2016-12-11T04:03:54.814Z,54.6
2016-12-11T04:06:26.651Z,54.5
2016-12-11T04:08:58.498Z,54.5
2016-12-11T04:11:30.327Z,54.5
2016-12-11T04:14:02.159Z,54.6
2016-12-11T04:16:34.002Z,54.5
2016-12-11T04:19:05.886Z,54.6
2016-12-11T04:21:37.738Z,54.5
2016-12-11T04:24:09.584Z,54.5
2016-12-11T04:26:41.408Z,54.5
2016-12-11T04:29:13.235Z,54.5
2016-12-11T04:31:45.075Z,54.4
2016-12-11T04:34:16.904Z,54.4
2016-12-11T04:36:48.764Z,54.4
2016-12-11T04:39:20.614Z,54.4
2016-12-11T04:41:52.445Z,54.4
2016-12-11T04:44:24.285Z,54.4
2016-12-11T04:46:56.123Z,54.3
2016-12-11T04:49:28.035Z,54.4
2016-12-11T04:51:59.887Z,54.4
2016-12-11T04:54:31.722Z,54.4
2016-12-11T04:57:03.565Z,54.4
2016-12-11T04:59:35.398Z,54.4
2016-12-11T05:02:07.235Z,54.4
2016-12-11T05:04:39.078Z,54.4
2016-12-11T05:07:10.935Z,54.4
2016-12-11T05:09:42.782Z,54.4
2016-12-11T05:12:14.633Z,54.4
2016-12-11T05:14:46.478Z,54.4
2016-12-11T05:17:18.327Z,54.4
2016-12-11T05:19:50.560Z,54.5
2016-12-11T05:22:22.397Z,54.5
2016-12-11T05:24:54.245Z,54.5
2016-12-11T05:27:26.097Z,54.5
2016-12-11T05:29:57.950Z,54.5
2016-12-11T05:32:29.786Z,54.4
2016-12-11T05:35:01.658Z,54.5
2016-12-11T05:37:33.495Z,54.5
2016-12-11T05:40:05.351Z,54.5
2016-12-11T05:42:37.217Z,54.5
2016-12-11T05:45:09.060Z,54.4
2016-12-11T05:47:40.902Z,54.4
2016-12-11T05:50:12.785Z,53.3
2016-12-11T05:52:44.644Z,53.6
2016-12-11T05:55:16.496Z,54
2016-12-11T05:57:48.330Z,54.2
2016-12-11T06:00:20.183Z,54.3
2016-12-11T06:02:52.009Z,54.3
2016-12-11T06:05:23.843Z,54.2
2016-12-11T06:07:55.707Z,54.3
2016-12-11T06:10:27.550Z,54.4
2016-12-11T06:12:59.409Z,54.2
2016-12-11T06:15:31.252Z,54.2
2016-12-11T06:18:03.100Z,54.2
2016-12-11T06:20:34.978Z,54.2
2016-12-11T06:23:06.814Z,54.2
2016-12-11T06:25:38.658Z,54.1
2016-12-11T06:28:10.524Z,54
2016-12-11T06:30:42.388Z,54
2016-12-11T06:33:14.220Z,54.1
2016-12-11T06:35:46.052Z,54.1
2016-12-11T06:38:17.909Z,54.1
2016-12-11T06:40:49.737Z,54.1
2016-12-11T06:43:21.591Z,54.1
2016-12-11T06:45:53.453Z,54
2016-12-11T06:48:25.292Z,54.3
2016-12-11T06:50:57.411Z,54.3
2016-12-11T06:53:29.264Z,54.3
2016-12-11T06:56:01.116Z,54.4
2016-12-11T06:58:32.998Z,54.3
2016-12-11T07:01:04.838Z,54.4
2016-12-11T07:03:48.353Z,54.4
2016-12-11T07:06:20.228Z,54.4
2016-12-11T07:08:52.078Z,54.6
2016-12-11T07:11:23.944Z,54.5
2016-12-11T07:13:55.796Z,54.4
2016-12-11T07:16:27.658Z,54.5
2016-12-11T07:18:59.516Z,54.4
2016-12-11T07:21:31.364Z,54.5
2016-12-11T07:24:03.203Z,54.5
2016-12-11T07:26:35.061Z,54.7
2016-12-11T07:29:06.910Z,54.5
2016-12-11T07:31:38.773Z,54.4
2016-12-11T07:34:10.625Z,54.9
2016-12-11T07:36:42.473Z,55
2016-12-11T07:39:14.322Z,55
2016-12-11T07:41:46.173Z,54.9
2016-12-11T07:44:18.128Z,54.9
2016-12-11T07:46:49.971Z,54.9
2016-12-11T07:49:21.830Z,54.9
2016-12-11T07:51:53.674Z,54.9
2016-12-11T07:54:25.505Z,54.9
2016-12-11T07:56:57.352Z,54.9
2016-12-11T07:59:29.191Z,55
2016-12-11T08:02:01.051Z,54.9
2016-12-11T08:04:32.904Z,55
2016-12-11T08:07:04.739Z,54.9
2016-12-11T08:09:36.829Z,55
2016-12-11T08:12:08.665Z,54.9
2016-12-11T08:14:40.508Z,54.9
2016-12-11T08:17:12.359Z,55
2016-12-11T08:19:44.215Z,55
2016-12-11T08:22:16.096Z,55
2016-12-11T08:24:47.929Z,54.9
2016-12-11T08:27:20.033Z,54.9
2016-12-11T08:29:51.877Z,54.9
2016-12-11T08:32:23.742Z,54.8
2016-12-11T08:34:55.588Z,54.8
2016-12-11T08:37:27.491Z,54.8
2016-12-11T08:39:59.347Z,54.7
2016-12-11T08:42:31.182Z,54.8
2016-12-11T08:45:03.041Z,54.8
2016-12-11T08:47:34.891Z,54.8
2016-12-11T08:50:06.727Z,54.8
2016-12-11T08:52:38.563Z,54.8
2016-12-11T08:55:10.419Z,54.8
2016-12-11T08:57:42.288Z,54.8
2016-12-11T09:00:14.130Z,54.8
2016-12-11T09:02:45.983Z,54.8
2016-12-11T09:05:17.845Z,54.8
2016-12-11T09:07:49.694Z,54.9
2016-12-11T09:10:21.550Z,54.8
2016-12-11T09:12:53.378Z,54.9
2016-12-11T09:15:25.607Z,54.9
2016-12-11T09:17:57.477Z,54.8
2016-12-11T09:20:29.316Z,54.7
2016-12-11T09:23:01.175Z,54.9
2016-12-11T09:25:33.015Z,54.9
2016-12-11T09:28:04.854Z,55
2016-12-11T09:30:36.711Z,54.9
2016-12-11T09:33:08.562Z,55
2016-12-11T09:35:40.418Z,54.9
2016-12-11T09:38:12.256Z,54.9
2016-12-11T09:40:44.101Z,54.8
2016-12-11T09:43:15.955Z,54.9
2016-12-11T09:45:47.790Z,54.9
2016-12-11T09:48:19.979Z,54.8
2016-12-11T09:50:51.854Z,54.9
2016-12-11T09:53:24.081Z,54.9
2016-12-11T09:55:55.913Z,54.8
2016-12-11T09:58:27.769Z,54.8
2016-12-11T10:00:59.603Z,54.8
2016-12-11T10:03:31.447Z,54.8
2016-12-11T10:06:03.300Z,54.8
2016-12-11T10:08:35.135Z,54.8
2016-12-11T10:11:06.970Z,54.8
2016-12-11T10:13:38.815Z,54.8
2016-12-11T10:16:10.665Z,54.7
2016-12-11T10:18:42.522Z,54.8
2016-12-11T10:21:14.366Z,54.8
2016-12-11T10:23:46.220Z,54.8
2016-12-11T10:26:18.071Z,54.8
2016-12-11T10:28:49.906Z,54.7
2016-12-11T10:31:21.738Z,54.7
2016-12-11T10:33:53.593Z,54.8
2016-12-11T10:36:25.446Z,54.7
2016-12-11T10:38:57.300Z,54.7
2016-12-11T10:41:29.569Z,54.7
2016-12-11T10:44:01.421Z,54.7
2016-12-11T10:46:33.258Z,54.7
2016-12-11T10:49:05.114Z,54.7
2016-12-11T10:51:36.976Z,54.7
2016-12-11T10:54:08.822Z,54.8
2016-12-11T10:56:40.666Z,54.7
2016-12-11T10:59:12.523Z,54.7
2016-12-11T11:01:44.485Z,54.7
2016-12-11T11:04:16.327Z,54.7
2016-12-11T11:06:48.178Z,54.7
2016-12-11T11:09:20.040Z,54.8
2016-12-11T11:11:51.891Z,54.7
2016-12-11T11:14:23.743Z,54.7
2016-12-11T11:16:55.609Z,54.7
2016-12-11T11:19:27.450Z,54.8
2016-12-11T11:21:59.298Z,54.7
2016-12-11T11:24:31.146Z,54.7
2016-12-11T11:27:03.023Z,54.7
2016-12-11T11:29:34.892Z,54.7
2016-12-11T11:32:06.744Z,54.7
2016-12-11T11:34:38.598Z,54.7
2016-12-11T11:37:10.494Z,54.7
2016-12-11T11:39:42.363Z,54.7
2016-12-11T11:42:14.208Z,54.7
2016-12-11T11:44:46.065Z,54.7
2016-12-11T11:47:17.914Z,54.7
2016-12-11T11:49:49.770Z,54.7
2016-12-11T11:52:21.623Z,54.7
2016-12-11T11:54:53.483Z,54.7
2016-12-11T11:57:25.323Z,54.7
2016-12-11T11:59:57.179Z,54.7
2016-12-11T12:02:29.042Z,54.7
2016-12-11T12:05:00.890Z,54.7
2016-12-11T12:07:32.743Z,54.7
2016-12-11T12:10:04.600Z,54.6
2016-12-11T12:12:36.450Z,54.4
2016-12-11T12:15:08.326Z,54.2
2016-12-11T12:17:40.185Z,53.4
2016-12-11T12:20:12.018Z,53.4
2016-12-11T12:22:43.899Z,53.4
2016-12-11T12:25:15.772Z,53.7
2016-12-11T12:27:47.632Z,52.6
2016-12-11T12:30:19.660Z,52.4
2016-12-11T12:32:51.489Z,52.4
2016-12-11T12:35:23.392Z,52.1
2016-12-11T12:37:55.235Z,52.1
2016-12-11T12:40:27.085Z,52.4
2016-12-11T12:42:59.289Z,53.4
2016-12-11T12:45:31.125Z,53.5
2016-12-11T12:48:02.965Z,53.5
2016-12-11T12:50:34.813Z,53.6
2016-12-11T12:53:06.653Z,53.9
2016-12-11T12:55:38.503Z,53.9
2016-12-11T12:58:10.374Z,53.4
2016-12-11T13:00:42.219Z,53.2
2016-12-11T13:03:14.072Z,53.2
2016-12-11T13:05:45.915Z,53.4
2016-12-11T13:08:17.747Z,53.9
2016-12-11T13:10:49.590Z,54
2016-12-11T13:13:21.438Z,53.9
2016-12-11T13:15:53.277Z,54.1
2016-12-11T13:18:25.121Z,54.2
2016-12-11T13:20:56.970Z,54.3
2016-12-11T13:23:29.086Z,54.3
2016-12-11T13:26:00.926Z,54.4
2016-12-11T13:28:32.765Z,54.4
2016-12-11T13:31:04.618Z,54.4
2016-12-11T13:33:36.470Z,54.4
2016-12-11T13:36:08.311Z,54.4
2016-12-11T13:38:40.153Z,54.4
2016-12-11T13:41:12.010Z,54.4
2016-12-11T13:43:43.849Z,54.4
2016-12-11T13:46:15.700Z,54.4
2016-12-11T13:48:47.567Z,54.4
2016-12-11T13:51:19.404Z,54.4
2016-12-11T13:53:51.246Z,54.4
2016-12-11T13:56:23.365Z,54.4
2016-12-11T13:58:55.213Z,54.4
2016-12-11T14:01:27.058Z,54.5
2016-12-11T14:03:59.169Z,54.5
2016-12-11T14:06:31.002Z,54.4
2016-12-11T14:09:02.861Z,54.4
2016-12-11T14:11:34.719Z,54.4
2016-12-11T14:14:06.578Z,54.5
2016-12-11T14:16:38.428Z,54.4
2016-12-11T14:19:10.271Z,54.4
2016-12-11T14:21:42.234Z,54.5
2016-12-11T14:24:14.081Z,54.4
2016-12-11T14:26:45.925Z,54.5
2016-12-11T14:29:17.778Z,54.5
2016-12-11T14:31:49.636Z,54.6
2016-12-11T14:34:21.491Z,54.6
2016-12-11T14:36:53.319Z,53.8
2016-12-11T14:39:25.172Z,54.1
2016-12-11T14:41:57.020Z,54.1
2016-12-11T14:44:28.865Z,54.5
2016-12-11T14:47:00.735Z,54.7
2016-12-11T14:49:32.583Z,54.8
2016-12-11T14:52:04.427Z,54.9
2016-12-11T14:54:36.278Z,54.9
2016-12-11T14:57:08.102Z,54.8
2016-12-11T14:59:39.961Z,54.8
2016-12-11T15:02:11.829Z,54.4
2016-12-11T15:04:43.663Z,53.7
2016-12-11T15:07:15.873Z,53.4
2016-12-11T15:09:47.712Z,53
2016-12-11T15:12:19.537Z,52.9
2016-12-11T15:14:51.409Z,52.6
2016-12-11T15:17:23.275Z,52.9
2016-12-11T15:19:55.123Z,53.4
2016-12-11T15:22:26.960Z,53.8
2016-12-11T15:24:58.804Z,53.9
2016-12-11T15:27:30.639Z,54
2016-12-11T15:30:02.492Z,54.2
2016-12-11T15:32:34.357Z,54.2
2016-12-11T15:35:06.208Z,54.4
2016-12-11T15:37:38.055Z,54.4
2016-12-11T15:40:09.887Z,54.4
2016-12-11T15:42:41.749Z,54.4
2016-12-11T15:45:13.585Z,54.4
2016-12-11T15:47:45.444Z,54.4
2016-12-11T15:50:17.304Z,54.4
2016-12-11T15:52:49.149Z,54.4
2016-12-11T15:55:21.003Z,54.4
2016-12-11T15:57:52.862Z,54.4
2016-12-11T16:00:24.717Z,54.4
2016-12-11T16:02:56.573Z,54.4
2016-12-11T16:05:28.420Z,54.4
2016-12-11T16:08:00.268Z,54.3
2016-12-11T16:10:32.104Z,54.2
2016-12-11T16:13:03.957Z,54.3
2016-12-11T16:15:35.816Z,54.3
2016-12-11T16:18:07.674Z,54.4
2016-12-11T16:20:39.540Z,54.4
2016-12-11T16:23:11.375Z,54.4
2016-12-11T16:25:43.243Z,54.4
2016-12-11T16:28:15.093Z,54.4
2016-12-11T16:30:46.935Z,54.4
2016-12-11T16:33:18.787Z,54.4
2016-12-11T16:35:50.661Z,54.5
2016-12-11T16:38:22.489Z,54.4
2016-12-11T16:40:54.353Z,54.4
2016-12-11T16:43:26.228Z,54.5
2016-12-11T16:45:58.077Z,54.5
2016-12-11T16:48:29.940Z,54.5
2016-12-11T16:51:01.807Z,54.5
2016-12-11T16:53:33.642Z,54.5
2016-12-11T16:56:05.499Z,54.5
2016-12-11T16:58:37.338Z,54.4
2016-12-11T17:01:09.201Z,54.3
2016-12-11T17:03:41.057Z,54.5
2016-12-11T17:06:12.884Z,54.7
2016-12-11T17:08:44.742Z,54.6
2016-12-11T17:11:16.591Z,54.1
2016-12-11T17:13:48.430Z,54.4
2016-12-11T17:16:20.287Z,54.6
2016-12-11T17:18:52.141Z,54.9
2016-12-11T17:21:23.994Z,54.9
2016-12-11T17:23:55.846Z,55
2016-12-11T17:26:27.698Z,55
2016-12-11T17:28:59.538Z,55
2016-12-11T17:31:31.398Z,55
2016-12-11T17:34:03.264Z,55
2016-12-11T17:36:35.108Z,55
2016-12-11T17:39:06.969Z,55
2016-12-11T17:41:38.806Z,55
2016-12-11T17:44:10.675Z,55
2016-12-11T17:46:42.538Z,55.1
2016-12-11T17:49:14.398Z,55
2016-12-11T17:51:46.246Z,55
2016-12-11T17:54:18.082Z,55
2016-12-11T17:56:49.947Z,54.9
2016-12-11T17:59:21.806Z,54.9
2016-12-11T18:01:53.650Z,54.9
2016-12-11T18:04:25.496Z,54.9
2016-12-11T18:06:57.350Z,54.9
2016-12-11T18:09:29.202Z,54.9
2016-12-11T18:12:01.039Z,54.9
2016-12-11T18:14:32.891Z,54.9
2016-12-11T18:17:04.750Z,54.8
2016-12-11T18:19:36.657Z,54.8
2016-12-11T18:22:08.535Z,54.8
2016-12-11T18:24:40.388Z,54.4
2016-12-11T18:27:12.234Z,54.4
2016-12-11T18:29:44.073Z,53.5
2016-12-11T18:32:15.924Z,53.6
2016-12-11T18:34:47.780Z,54.1
2016-12-11T18:37:19.642Z,54
2016-12-11T18:39:51.484Z,54
2016-12-11T18:42:23.312Z,53.5
2016-12-11T18:44:55.162Z,53.4
2016-12-11T18:47:26.996Z,53.1
2016-12-11T18:49:58.852Z,53.1
2016-12-11T18:52:30.715Z,53
2016-12-11T18:55:02.563Z,53.5
2016-12-11T18:57:34.396Z,53.5
2016-12-11T19:00:06.253Z,53.6
2016-12-11T19:02:38.079Z,53.9
2016-12-11T19:05:09.938Z,53.9
2016-12-11T19:07:41.812Z,53.9
2016-12-11T19:10:13.664Z,54
2016-12-11T19:12:45.514Z,54
2016-12-11T19:15:17.358Z,54
2016-12-11T19:17:49.211Z,54
2016-12-11T19:20:21.084Z,54
2016-12-11T19:22:52.925Z,54
2016-12-11T19:25:24.756Z,54.1
2016-12-11T19:27:56.624Z,54.1
2016-12-11T19:30:28.461Z,54.1
2016-12-11T19:33:00.335Z,54
2016-12-11T19:35:32.189Z,54.1
2016-12-11T19:38:04.017Z,54.1
2016-12-11T19:40:35.868Z,54.1
2016-12-11T19:43:07.724Z,54.2
2016-12-11T19:45:39.554Z,54.1
2016-12-11T19:48:11.394Z,54.2
2016-12-11T19:50:43.230Z,54.1
2016-12-11T19:53:15.090Z,54.2
2016-12-11T19:55:46.958Z,54.2
2016-12-11T19:58:18.808Z,54.2
2016-12-11T20:00:50.664Z,54.1
2016-12-11T20:03:22.510Z,54.2
2016-12-11T20:05:54.363Z,54.2
2016-12-11T20:08:26.210Z,54.2
2016-12-11T20:10:58.063Z,54.2
2016-12-11T20:13:29.904Z,54.2
2016-12-11T20:16:01.749Z,54.2
2016-12-11T20:18:33.632Z,54.3
2016-12-11T20:21:05.492Z,54.3
2016-12-11T20:23:37.354Z,54.2
2016-12-11T20:26:09.195Z,54.3
2016-12-11T20:28:41.054Z,54.3
2016-12-11T20:31:12.900Z,54.3
2016-12-11T20:33:44.744Z,54.3
2016-12-11T20:36:16.591Z,54.3
2016-12-11T20:38:48.436Z,54.2
2016-12-11T20:41:20.273Z,54
2016-12-11T20:43:52.109Z,54.2
2016-12-11T20:46:23.978Z,54.3
2016-12-11T20:48:55.822Z,54.4
2016-12-11T20:51:27.677Z,54.4
2016-12-11T20:53:59.536Z,54.4
2016-12-11T20:56:31.381Z,54.5
2016-12-11T20:59:03.225Z,54.5
2016-12-11T21:01:35.081Z,54.5
2016-12-11T21:04:06.927Z,54.5
2016-12-11T21:06:38.768Z,54.5
2016-12-11T21:09:10.626Z,54.5
2016-12-11T21:11:42.471Z,54.6
2016-12-11T21:14:14.329Z,54.5
2016-12-11T21:16:46.159Z,54.5
2016-12-11T21:19:18.004Z,54.6
2016-12-11T21:21:49.851Z,54.6
2016-12-11T21:24:21.712Z,54.6
2016-12-11T21:26:53.545Z,54.6
2016-12-11T21:29:25.395Z,54.3
2016-12-11T21:31:57.228Z,54.4
2016-12-11T21:34:29.061Z,54.6
2016-12-11T21:37:00.917Z,54.6
2016-12-11T21:39:32.764Z,54.7
2016-12-11T21:42:04.640Z,54.7
2016-12-11T21:44:36.472Z,54.7
2016-12-11T21:47:08.320Z,54.7
2016-12-11T21:49:40.174Z,54.7
2016-12-11T21:52:12.019Z,54.8
2016-12-11T21:54:43.871Z,54.9
2016-12-11T21:57:15.725Z,54.8
2016-12-11T21:59:47.572Z,54.8
2016-12-11T22:02:19.395Z,54.8
2016-12-11T22:04:51.253Z,54.8
2016-12-11T22:07:23.120Z,54.8
2016-12-11T22:09:54.949Z,54.8
2016-12-11T22:12:26.789Z,54.8
2016-12-11T22:14:58.631Z,54.8
2016-12-11T22:17:30.487Z,54.8
2016-12-11T22:20:02.330Z,54.8
2016-12-11T22:22:34.165Z,54.8
2016-12-11T22:25:06.054Z,54.8
2016-12-11T22:27:37.914Z,54.8
2016-12-11T22:30:09.746Z,54.8
2016-12-11T22:32:41.599Z,54.8
2016-12-11T22:35:13.426Z,54.8
2016-12-11T22:37:45.253Z,54.8
2016-12-11T22:40:17.116Z,54.8
2016-12-11T22:42:48.958Z,54.8
2016-12-11T22:45:20.797Z,54.8
2016-12-11T22:47:52.635Z,54.8
2016-12-11T22:50:24.486Z,54.8
2016-12-11T22:52:56.341Z,54.8
2016-12-11T22:55:28.188Z,54.8
2016-12-11T22:58:00.038Z,54.8
2016-12-11T23:00:31.904Z,54.8
2016-12-11T23:03:03.764Z,54.8
2016-12-11T23:05:35.597Z,54.7
2016-12-11T23:08:07.436Z,54.7
2016-12-11T23:10:39.285Z,54.7
2016-12-11T23:13:11.135Z,54.7
2016-12-11T23:15:42.990Z,54.7
2016-12-11T23:18:14.859Z,54.7
2016-12-11T23:20:46.683Z,54.7
2016-12-11T23:23:18.548Z,54.6
2016-12-11T23:25:50.395Z,54.6
2016-12-11T23:28:22.237Z,54.6
2016-12-11T23:30:54.075Z,54.6
2016-12-11T23:33:25.926Z,54.6
2016-12-11T23:35:57.771Z,54.6
2016-12-11T23:38:29.610Z,54.5
2016-12-11T23:41:01.451Z,54.5
2016-12-11T23:43:33.301Z,54.5
2016-12-11T23:46:05.151Z,54.5
2016-12-11T23:48:36.986Z,54.5
2016-12-11T23:51:08.844Z,54.5
2016-12-11T23:53:40.680Z,54.5
2016-12-11T23:56:12.513Z,54.5
2016-12-11T23:58:44.369Z,54.5
